KLM941 EHAM-EGPF
Flight info
| Callsign | KLM941 |
|---|---|
| Flight time | 1h 10m |
| Altitude | 38000 |
| Route | BERGI L602 SUPUR P1 GODOS DCT ROXAT DCT BAZNA DCT ANMAZ DCT EWOKE DCT AGPED |
| Aircraft | B739/M-SDE2E3FGHIRWXY/LB1 |
Departure
| Time | 2026-05-05 12:18 |
|---|---|
| Airport | Amsterdam Airport Schiphol (EHAM) |
Arrival
| Time | 2026-05-05 13:29 |
|---|---|
| Airport | Glasgow Airport (EGPF) |
| Time | Latitude | Longitude | Altitude | Speed | Heading |
|---|---|---|---|---|---|
| 2026-05-05 11:45 | 52.30791 | 4.77165 | -2 ft | 0 kts | 183° |
| 2026-05-05 11:45 | 52.30791 | 4.77166 | -2 ft | 0 kts | 183° |
| 2026-05-05 11:47 | 52.30792 | 4.77166 | -2 ft | 0 kts | 183° |
| 2026-05-05 12:02 | 52.30793 | 4.77166 | -2 ft | 2 kts | 183° |
| 2026-05-05 12:02 | 52.30817 | 4.77172 | -2 ft | 4 kts | 198° |
| 2026-05-05 12:02 | 52.30834 | 4.77176 | -2 ft | 2 kts | 130° |
| 2026-05-05 12:02 | 52.30844 | 4.77143 | -2 ft | 3 kts | 107° |
| 2026-05-05 12:03 | 52.30844 | 4.77139 | -2 ft | 0 kts | 108° |
| 2026-05-05 12:04 | 52.30844 | 4.77138 | -2 ft | 0 kts | 108° |
| 2026-05-05 12:06 | 52.30845 | 4.77146 | -2 ft | 0 kts | 92° |
| 2026-05-05 12:06 | 52.30844 | 4.77152 | -2 ft | 0 kts | 92° |
| 2026-05-05 12:07 | 52.30844 | 4.77163 | -2 ft | 2 kts | 92° |
| 2026-05-05 12:07 | 52.30843 | 4.77208 | -2 ft | 6 kts | 92° |
| 2026-05-05 12:07 | 52.30840 | 4.77301 | -2 ft | 10 kts | 93° |
| 2026-05-05 12:07 | 52.30836 | 4.77421 | -2 ft | 12 kts | 93° |
| 2026-05-05 12:08 | 52.30834 | 4.77534 | -2 ft | 3 kts | 82° |
| 2026-05-05 12:08 | 52.30853 | 4.77587 | -2 ft | 7 kts | 39° |
| 2026-05-05 12:08 | 52.30914 | 4.77612 | -2 ft | 11 kts | 3° |
| 2026-05-05 12:08 | 52.30971 | 4.77617 | -2 ft | 0 kts | 4° |
| 2026-05-05 12:09 | 52.30984 | 4.77619 | -2 ft | 8 kts | 4° |
| 2026-05-05 12:09 | 52.31075 | 4.77626 | -2 ft | 16 kts | 3° |
| 2026-05-05 12:09 | 52.31185 | 4.77638 | -2 ft | 15 kts | 3° |
| 2026-05-05 12:09 | 52.31290 | 4.77645 | -2 ft | 15 kts | 2° |
| 2026-05-05 12:10 | 52.31390 | 4.77654 | -2 ft | 14 kts | 359° |
| 2026-05-05 12:10 | 52.31481 | 4.77604 | -2 ft | 14 kts | 325° |
| 2026-05-05 12:10 | 52.31546 | 4.77500 | -2 ft | 13 kts | 309° |
| 2026-05-05 12:10 | 52.31577 | 4.77366 | -2 ft | 13 kts | 272° |
| 2026-05-05 12:11 | 52.31573 | 4.77224 | -2 ft | 12 kts | 267° |
| 2026-05-05 12:11 | 52.31568 | 4.77086 | -2 ft | 12 kts | 268° |
| 2026-05-05 12:11 | 52.31563 | 4.76951 | -2 ft | 12 kts | 266° |
| 2026-05-05 12:11 | 52.31559 | 4.76820 | -2 ft | 11 kts | 267° |
| 2026-05-05 12:12 | 52.31554 | 4.76688 | -2 ft | 12 kts | 266° |
| 2026-05-05 12:12 | 52.31549 | 4.76537 | -2 ft | 15 kts | 267° |
| 2026-05-05 12:12 | 52.31542 | 4.76346 | -2 ft | 19 kts | 267° |
| 2026-05-05 12:12 | 52.31535 | 4.76106 | -2 ft | 22 kts | 266° |
| 2026-05-05 12:13 | 52.31526 | 4.75863 | -2 ft | 21 kts | 267° |
| 2026-05-05 12:13 | 52.31517 | 4.75626 | -2 ft | 21 kts | 266° |
| 2026-05-05 12:13 | 52.31510 | 4.75397 | -2 ft | 20 kts | 267° |
| 2026-05-05 12:13 | 52.31502 | 4.75177 | -2 ft | 19 kts | 267° |
| 2026-05-05 12:14 | 52.31495 | 4.74962 | -2 ft | 19 kts | 267° |
| 2026-05-05 12:14 | 52.31494 | 4.74930 | -2 ft | 19 kts | 266° |
| 2026-05-05 12:14 | 52.31491 | 4.74833 | -2 ft | 18 kts | 267° |
| 2026-05-05 12:14 | 52.31484 | 4.74630 | -2 ft | 18 kts | 267° |
| 2026-05-05 12:15 | 52.31477 | 4.74434 | -2 ft | 17 kts | 267° |
| 2026-05-05 12:15 | 52.31467 | 4.74251 | -2 ft | 16 kts | 253° |
| 2026-05-05 12:15 | 52.31392 | 4.74141 | -2 ft | 15 kts | 188° |
| 2026-05-05 12:15 | 52.31288 | 4.74129 | -2 ft | 15 kts | 182° |
| 2026-05-05 12:16 | 52.31188 | 4.74120 | -2 ft | 15 kts | 182° |
| 2026-05-05 12:16 | 52.31076 | 4.74109 | -2 ft | 18 kts | 184° |
| 2026-05-05 12:16 | 52.30937 | 4.74096 | -2 ft | 22 kts | 183° |
| 2026-05-05 12:16 | 52.30770 | 4.74082 | -2 ft | 26 kts | 183° |
| 2026-05-05 12:17 | 52.30580 | 4.74071 | -2 ft | 29 kts | 180° |
| 2026-05-05 12:17 | 52.30437 | 4.74042 | -2 ft | 17 kts | 205° |
| 2026-05-05 12:17 | 52.30409 | 4.73895 | -3 ft | 16 kts | 272° |
| 2026-05-05 12:17 | 52.30468 | 4.73762 | -4 ft | 7 kts | 4° |
| 2026-05-05 12:18 | 52.30476 | 4.73763 | -4 ft | 9 kts | 4° |
| 2026-05-05 12:18 | 52.30790 | 4.73793 | -1 ft | 90 kts | 3° |
| 2026-05-05 12:18 | 52.31686 | 4.73891 | 19 ft | 162 kts | 3° |
| 2026-05-05 12:18 | 52.32814 | 4.73983 | 903 ft | 165 kts | 5° |
| 2026-05-05 12:19 | 52.34007 | 4.74106 | 1874 ft | 176 kts | 9° |
| 2026-05-05 12:19 | 52.35223 | 4.74367 | 2816 ft | 179 kts | 13° |
| 2026-05-05 12:19 | 52.36402 | 4.75216 | 3135 ft | 199 kts | 30° |
| 2026-05-05 12:19 | 52.37663 | 4.76310 | 3382 ft | 216 kts | 31° |
| 2026-05-05 12:20 | 52.38778 | 4.78059 | 3712 ft | 231 kts | 51° |
| 2026-05-05 12:20 | 52.39886 | 4.80167 | 4009 ft | 250 kts | 47° |
| 2026-05-05 12:20 | 52.41101 | 4.82279 | 4668 ft | 259 kts | 45° |
| 2026-05-05 12:20 | 52.42365 | 4.84418 | 5352 ft | 264 kts | 43° |
| 2026-05-05 12:21 | 52.43920 | 4.86006 | 6055 ft | 269 kts | 14° |
| 2026-05-05 12:21 | 52.45794 | 4.86265 | 6698 ft | 274 kts | 357° |
| 2026-05-05 12:21 | 52.47706 | 4.86058 | 6915 ft | 276 kts | 355° |
| 2026-05-05 12:21 | 52.49627 | 4.85839 | 6967 ft | 278 kts | 356° |
| 2026-05-05 12:22 | 52.51576 | 4.85632 | 7440 ft | 282 kts | 356° |
| 2026-05-05 12:22 | 52.53481 | 4.85023 | 8217 ft | 281 kts | 333° |
| 2026-05-05 12:22 | 52.55023 | 4.83101 | 9012 ft | 279 kts | 310° |
| 2026-05-05 12:22 | 52.56209 | 4.80553 | 9719 ft | 282 kts | 304° |
| 2026-05-05 12:23 | 52.56959 | 4.78773 | 10140 ft | 286 kts | 304° |
| 2026-05-05 12:23 | 52.57011 | 4.78648 | 10166 ft | 286 kts | 304° |
| 2026-05-05 12:23 | 52.57420 | 4.77662 | 10297 ft | 293 kts | 303° |
| 2026-05-05 12:23 | 52.58606 | 4.74785 | 10455 ft | 314 kts | 303° |
| 2026-05-05 12:24 | 52.59876 | 4.71714 | 10642 ft | 334 kts | 304° |
| 2026-05-05 12:24 | 52.61220 | 4.68494 | 10956 ft | 347 kts | 304° |
| 2026-05-05 12:24 | 52.62599 | 4.65204 | 11604 ft | 350 kts | 304° |
| 2026-05-05 12:24 | 52.63987 | 4.61903 | 12297 ft | 352 kts | 304° |
| 2026-05-05 12:25 | 52.65379 | 4.58591 | 13123 ft | 350 kts | 303° |
| 2026-05-05 12:25 | 52.66767 | 4.55294 | 13888 ft | 352 kts | 303° |
| 2026-05-05 12:25 | 52.68170 | 4.51956 | 14457 ft | 357 kts | 303° |
| 2026-05-05 12:25 | 52.69570 | 4.48626 | 15077 ft | 360 kts | 302° |
| 2026-05-05 12:26 | 52.71004 | 4.45211 | 15699 ft | 364 kts | 302° |
| 2026-05-05 12:26 | 52.72453 | 4.41753 | 16305 ft | 368 kts | 302° |
| 2026-05-05 12:26 | 52.73919 | 4.38250 | 16905 ft | 373 kts | 302° |
| 2026-05-05 12:26 | 52.75366 | 4.34676 | 17494 ft | 376 kts | 299° |
| 2026-05-05 12:27 | 52.76695 | 4.30935 | 18101 ft | 379 kts | 297° |
| 2026-05-05 12:27 | 52.77978 | 4.27107 | 18634 ft | 383 kts | 296° |
| 2026-05-05 12:27 | 52.79259 | 4.23228 | 19167 ft | 386 kts | 296° |
| 2026-05-05 12:27 | 52.80551 | 4.19321 | 19683 ft | 390 kts | 296° |
| 2026-05-05 12:28 | 52.81860 | 4.15384 | 20254 ft | 392 kts | 296° |
| 2026-05-05 12:28 | 52.83183 | 4.11426 | 20801 ft | 395 kts | 296° |
| 2026-05-05 12:28 | 52.84520 | 4.07438 | 21335 ft | 398 kts | 296° |
| 2026-05-05 12:28 | 52.85867 | 4.03421 | 21872 ft | 400 kts | 296° |
| 2026-05-05 12:29 | 52.87223 | 3.99374 | 22383 ft | 404 kts | 296° |
| 2026-05-05 12:29 | 52.88595 | 3.95274 | 22898 ft | 407 kts | 296° |
| 2026-05-05 12:29 | 52.89965 | 3.91176 | 23415 ft | 410 kts | 296° |
| 2026-05-05 12:29 | 52.91347 | 3.87033 | 23863 ft | 412 kts | 296° |
| 2026-05-05 12:30 | 52.92720 | 3.82909 | 24314 ft | 414 kts | 296° |
| 2026-05-05 12:30 | 52.94131 | 3.78668 | 24770 ft | 416 kts | 296° |
| 2026-05-05 12:30 | 52.95509 | 3.74513 | 25249 ft | 416 kts | 295° |
| 2026-05-05 12:30 | 52.96900 | 3.70316 | 25811 ft | 415 kts | 295° |
| 2026-05-05 12:31 | 52.98290 | 3.66109 | 26229 ft | 417 kts | 295° |
| 2026-05-05 12:31 | 52.99718 | 3.61887 | 26586 ft | 422 kts | 299° |
| 2026-05-05 12:31 | 53.01604 | 3.58086 | 26939 ft | 433 kts | 314° |
| 2026-05-05 12:31 | 53.04042 | 3.55084 | 27370 ft | 441 kts | 326° |
| 2026-05-05 12:32 | 53.06881 | 3.53030 | 27742 ft | 449 kts | 337° |
| 2026-05-05 12:32 | 53.09863 | 3.51417 | 28108 ft | 453 kts | 338° |
| 2026-05-05 12:32 | 53.12877 | 3.49828 | 28462 ft | 456 kts | 338° |
| 2026-05-05 12:32 | 53.15896 | 3.48176 | 28801 ft | 458 kts | 337° |
| 2026-05-05 12:33 | 53.18914 | 3.46463 | 29137 ft | 460 kts | 337° |
| 2026-05-05 12:33 | 53.21900 | 3.44548 | 29485 ft | 458 kts | 329° |
| 2026-05-05 12:33 | 53.24564 | 3.41701 | 29827 ft | 453 kts | 316° |
| 2026-05-05 12:33 | 53.26807 | 3.38084 | 30264 ft | 446 kts | 306° |
| 2026-05-05 12:34 | 53.28577 | 3.33891 | 30685 ft | 440 kts | 299° |
| 2026-05-05 12:34 | 53.30199 | 3.29557 | 31067 ft | 439 kts | 298° |
| 2026-05-05 12:34 | 53.31814 | 3.25209 | 31367 ft | 440 kts | 298° |
| 2026-05-05 12:34 | 53.33444 | 3.20866 | 31696 ft | 441 kts | 299° |
| 2026-05-05 12:35 | 53.35087 | 3.16545 | 32060 ft | 440 kts | 300° |
| 2026-05-05 12:35 | 53.36791 | 3.12290 | 32417 ft | 440 kts | 301° |
| 2026-05-05 12:35 | 53.38528 | 3.08064 | 32764 ft | 440 kts | 302° |
| 2026-05-05 12:35 | 53.40272 | 3.03827 | 32995 ft | 443 kts | 302° |
| 2026-05-05 12:36 | 53.42018 | 2.99569 | 33272 ft | 443 kts | 302° |
| 2026-05-05 12:36 | 53.43759 | 2.95311 | 33629 ft | 442 kts | 302° |
| 2026-05-05 12:36 | 53.45471 | 2.91112 | 33974 ft | 442 kts | 302° |
| 2026-05-05 12:36 | 53.47255 | 2.86788 | 33975 ft | 447 kts | 302° |
| 2026-05-05 12:37 | 53.50811 | 2.78238 | 33980 ft | 444 kts | 302° |
| 2026-05-05 12:37 | 53.54312 | 2.69851 | 33986 ft | 440 kts | 303° |
| 2026-05-05 12:38 | 53.57836 | 2.61383 | 34141 ft | 444 kts | 302° |
| 2026-05-05 12:38 | 53.59575 | 2.57093 | 34393 ft | 444 kts | 302° |
| 2026-05-05 12:38 | 53.61298 | 2.52769 | 34589 ft | 445 kts | 302° |
| 2026-05-05 12:39 | 53.63015 | 2.48426 | 34862 ft | 444 kts | 302° |
| 2026-05-05 12:39 | 53.64719 | 2.44101 | 35166 ft | 443 kts | 302° |
| 2026-05-05 12:39 | 53.66418 | 2.39782 | 35436 ft | 442 kts | 302° |
| 2026-05-05 12:39 | 53.68116 | 2.35456 | 35652 ft | 442 kts | 301° |
| 2026-05-05 12:40 | 53.69241 | 2.32590 | 35793 ft | 443 kts | 301° |
| 2026-05-05 12:40 | 53.70939 | 2.28258 | 36036 ft | 442 kts | 301° |
| 2026-05-05 12:40 | 53.72638 | 2.23924 | 36295 ft | 441 kts | 302° |
| 2026-05-05 12:40 | 53.74330 | 2.19609 | 36553 ft | 440 kts | 302° |
| 2026-05-05 12:41 | 53.76019 | 2.15287 | 36770 ft | 440 kts | 302° |
| 2026-05-05 12:41 | 53.77693 | 2.10962 | 36996 ft | 440 kts | 301° |
| 2026-05-05 12:41 | 53.79307 | 2.06573 | 37216 ft | 439 kts | 300° |
| 2026-05-05 12:41 | 53.80882 | 2.02148 | 37447 ft | 438 kts | 299° |
| 2026-05-05 12:42 | 53.82438 | 1.97724 | 37658 ft | 438 kts | 299° |
| 2026-05-05 12:42 | 53.83996 | 1.93293 | 37861 ft | 437 kts | 299° |
| 2026-05-05 12:42 | 53.85555 | 1.88872 | 38003 ft | 438 kts | 299° |
| 2026-05-05 12:42 | 53.87128 | 1.84422 | 37988 ft | 440 kts | 299° |
| 2026-05-05 12:43 | 53.90271 | 1.75553 | 37994 ft | 437 kts | 299° |
| 2026-05-05 12:43 | 53.93390 | 1.66745 | 37997 ft | 435 kts | 299° |
| 2026-05-05 12:44 | 53.96497 | 1.57940 | 38010 ft | 436 kts | 299° |
| 2026-05-05 12:44 | 53.99626 | 1.49040 | 38012 ft | 438 kts | 299° |
| 2026-05-05 12:45 | 54.02736 | 1.40164 | 37992 ft | 436 kts | 299° |
| 2026-05-05 12:45 | 54.05819 | 1.31332 | 37993 ft | 433 kts | 298° |
| 2026-05-05 12:46 | 54.08860 | 1.22589 | 37998 ft | 431 kts | 298° |
| 2026-05-05 12:46 | 54.11901 | 1.13815 | 38003 ft | 430 kts | 298° |
| 2026-05-05 12:47 | 54.14937 | 1.05023 | 38008 ft | 430 kts | 298° |
| 2026-05-05 12:47 | 54.17971 | 0.96204 | 38007 ft | 431 kts | 298° |
| 2026-05-05 12:48 | 54.21012 | 0.87335 | 38008 ft | 433 kts | 298° |
| 2026-05-05 12:48 | 54.24057 | 0.78419 | 38012 ft | 436 kts | 298° |
| 2026-05-05 12:49 | 54.27112 | 0.69444 | 38009 ft | 437 kts | 298° |
| 2026-05-05 12:49 | 54.30168 | 0.60433 | 38003 ft | 437 kts | 298° |
| 2026-05-05 12:50 | 54.33191 | 0.51491 | 38008 ft | 432 kts | 298° |
| 2026-05-05 12:50 | 54.36200 | 0.42551 | 38020 ft | 433 kts | 298° |
| 2026-05-05 12:51 | 54.39213 | 0.33566 | 38019 ft | 435 kts | 298° |
| 2026-05-05 12:51 | 54.42226 | 0.24551 | 38006 ft | 436 kts | 298° |
| 2026-05-05 12:52 | 54.43713 | 0.20089 | 37837 ft | 437 kts | 298° |
| 2026-05-05 12:52 | 54.45218 | 0.15564 | 37605 ft | 435 kts | 298° |
| 2026-05-05 12:52 | 54.46713 | 0.11063 | 37387 ft | 433 kts | 298° |
| 2026-05-05 12:52 | 54.48205 | 0.06562 | 37175 ft | 434 kts | 298° |
| 2026-05-05 12:53 | 54.49699 | 0.02044 | 36977 ft | 434 kts | 298° |
| 2026-05-05 12:53 | 54.51188 | -0.02465 | 36786 ft | 433 kts | 297° |
| 2026-05-05 12:53 | 54.52676 | -0.06978 | 36572 ft | 432 kts | 297° |
| 2026-05-05 12:53 | 54.54153 | -0.11469 | 36364 ft | 431 kts | 297° |
| 2026-05-05 12:54 | 54.57105 | -0.20468 | 35972 ft | 432 kts | 297° |
| 2026-05-05 12:54 | 54.58580 | -0.24977 | 35762 ft | 432 kts | 297° |
| 2026-05-05 12:54 | 54.60057 | -0.29501 | 35566 ft | 433 kts | 297° |
| 2026-05-05 12:55 | 54.61532 | -0.34025 | 35368 ft | 433 kts | 297° |
| 2026-05-05 12:55 | 54.63006 | -0.38558 | 35186 ft | 433 kts | 297° |
| 2026-05-05 12:55 | 54.64477 | -0.43088 | 34987 ft | 433 kts | 297° |
| 2026-05-05 12:55 | 54.65946 | -0.47619 | 34827 ft | 432 kts | 297° |
| 2026-05-05 12:56 | 54.67393 | -0.52091 | 34662 ft | 432 kts | 297° |
| 2026-05-05 12:56 | 54.68873 | -0.56677 | 34488 ft | 432 kts | 297° |
| 2026-05-05 12:56 | 54.70319 | -0.61164 | 34326 ft | 432 kts | 297° |
| 2026-05-05 12:56 | 54.71780 | -0.65704 | 34168 ft | 432 kts | 297° |
| 2026-05-05 12:57 | 54.73239 | -0.70250 | 33990 ft | 432 kts | 296° |
| 2026-05-05 12:57 | 54.74698 | -0.74803 | 33804 ft | 432 kts | 296° |
| 2026-05-05 12:57 | 54.76152 | -0.79346 | 33645 ft | 431 kts | 296° |
| 2026-05-05 12:57 | 54.77602 | -0.83888 | 33455 ft | 428 kts | 296° |
| 2026-05-05 12:58 | 54.79038 | -0.88393 | 33259 ft | 427 kts | 296° |
| 2026-05-05 12:58 | 54.80472 | -0.92902 | 33076 ft | 428 kts | 296° |
| 2026-05-05 12:58 | 54.81910 | -0.97433 | 32889 ft | 429 kts | 296° |
| 2026-05-05 12:58 | 54.83348 | -1.01974 | 32703 ft | 429 kts | 296° |
| 2026-05-05 12:59 | 54.84786 | -1.06519 | 32519 ft | 430 kts | 296° |
| 2026-05-05 12:59 | 54.86222 | -1.11070 | 32341 ft | 430 kts | 296° |
| 2026-05-05 12:59 | 54.87662 | -1.15640 | 32159 ft | 431 kts | 296° |
| 2026-05-05 13:00 | 54.90536 | -1.24787 | 31803 ft | 432 kts | 296° |
| 2026-05-05 13:00 | 54.91972 | -1.29374 | 31634 ft | 432 kts | 296° |
| 2026-05-05 13:01 | 54.96257 | -1.43102 | 31118 ft | 433 kts | 296° |
| 2026-05-05 13:01 | 54.97253 | -1.46306 | 30993 ft | 433 kts | 296° |
| 2026-05-05 13:01 | 54.97578 | -1.47353 | 30963 ft | 433 kts | 296° |
| 2026-05-05 13:02 | 54.99011 | -1.51969 | 30784 ft | 433 kts | 296° |
| 2026-05-05 13:02 | 55.00438 | -1.56577 | 30641 ft | 432 kts | 295° |
| 2026-05-05 13:02 | 55.01864 | -1.61190 | 30465 ft | 432 kts | 295° |
| 2026-05-05 13:02 | 55.03284 | -1.65791 | 30305 ft | 432 kts | 295° |
| 2026-05-05 13:03 | 55.04707 | -1.70415 | 30130 ft | 433 kts | 295° |
| 2026-05-05 13:03 | 55.06133 | -1.75055 | 29880 ft | 435 kts | 295° |
| 2026-05-05 13:03 | 55.07563 | -1.79719 | 29483 ft | 437 kts | 295° |
| 2026-05-05 13:03 | 55.08979 | -1.84337 | 29062 ft | 423 kts | 295° |
| 2026-05-05 13:04 | 55.10342 | -1.88786 | 28617 ft | 407 kts | 295° |
| 2026-05-05 13:04 | 55.11649 | -1.93067 | 28218 ft | 392 kts | 295° |
| 2026-05-05 13:04 | 55.12921 | -1.97203 | 27830 ft | 382 kts | 296° |
| 2026-05-05 13:04 | 55.14233 | -2.01244 | 27458 ft | 381 kts | 297° |
| 2026-05-05 13:05 | 55.15567 | -2.05259 | 27103 ft | 381 kts | 297° |
| 2026-05-05 13:05 | 55.16912 | -2.09254 | 26742 ft | 381 kts | 298° |
| 2026-05-05 13:05 | 55.18299 | -2.13144 | 26409 ft | 383 kts | 299° |
| 2026-05-05 13:05 | 55.19733 | -2.17077 | 26041 ft | 381 kts | 300° |
| 2026-05-05 13:06 | 55.21159 | -2.20964 | 25682 ft | 378 kts | 300° |
| 2026-05-05 13:06 | 55.22577 | -2.24829 | 25334 ft | 376 kts | 300° |
| 2026-05-05 13:06 | 55.23984 | -2.28675 | 24993 ft | 374 kts | 300° |
| 2026-05-05 13:06 | 55.25379 | -2.32514 | 24675 ft | 373 kts | 300° |
| 2026-05-05 13:07 | 55.26753 | -2.36352 | 24341 ft | 372 kts | 300° |
| 2026-05-05 13:07 | 55.28121 | -2.40205 | 23996 ft | 373 kts | 300° |
| 2026-05-05 13:07 | 55.29486 | -2.44072 | 23644 ft | 371 kts | 300° |
| 2026-05-05 13:07 | 55.30842 | -2.47926 | 23235 ft | 370 kts | 300° |
| 2026-05-05 13:08 | 55.32190 | -2.51770 | 22831 ft | 369 kts | 300° |
| 2026-05-05 13:08 | 55.33454 | -2.55657 | 22424 ft | 365 kts | 296° |
| 2026-05-05 13:08 | 55.34602 | -2.59617 | 22027 ft | 362 kts | 295° |
| 2026-05-05 13:08 | 55.35713 | -2.63562 | 21630 ft | 358 kts | 295° |
| 2026-05-05 13:09 | 55.36816 | -2.67463 | 21230 ft | 355 kts | 295° |
| 2026-05-05 13:09 | 55.37917 | -2.71315 | 20843 ft | 351 kts | 295° |
| 2026-05-05 13:09 | 55.39006 | -2.75093 | 20413 ft | 350 kts | 295° |
| 2026-05-05 13:09 | 55.40110 | -2.78904 | 19960 ft | 349 kts | 296° |
| 2026-05-05 13:10 | 55.41226 | -2.82749 | 19512 ft | 348 kts | 296° |
| 2026-05-05 13:10 | 55.42311 | -2.86488 | 19074 ft | 346 kts | 296° |
| 2026-05-05 13:10 | 55.43403 | -2.90252 | 18650 ft | 345 kts | 296° |
| 2026-05-05 13:10 | 55.44493 | -2.94017 | 18208 ft | 344 kts | 296° |
| 2026-05-05 13:11 | 55.45571 | -2.97750 | 17733 ft | 340 kts | 295° |
| 2026-05-05 13:11 | 55.46412 | -3.01602 | 17226 ft | 336 kts | 281° |
| 2026-05-05 13:11 | 55.46828 | -3.05627 | 16777 ft | 332 kts | 279° |
| 2026-05-05 13:11 | 55.47226 | -3.09623 | 16297 ft | 330 kts | 280° |
| 2026-05-05 13:12 | 55.47630 | -3.13586 | 15837 ft | 327 kts | 280° |
| 2026-05-05 13:12 | 55.48037 | -3.17518 | 15382 ft | 325 kts | 281° |
| 2026-05-05 13:12 | 55.48448 | -3.21415 | 14939 ft | 322 kts | 281° |
| 2026-05-05 13:12 | 55.48857 | -3.25284 | 14510 ft | 319 kts | 281° |
| 2026-05-05 13:13 | 55.49264 | -3.29120 | 14076 ft | 317 kts | 281° |
| 2026-05-05 13:13 | 55.49666 | -3.32925 | 13620 ft | 314 kts | 281° |
| 2026-05-05 13:13 | 55.50302 | -3.36576 | 13103 ft | 312 kts | 297° |
| 2026-05-05 13:13 | 55.51392 | -3.39856 | 12629 ft | 307 kts | 301° |
| 2026-05-05 13:14 | 55.52510 | -3.43019 | 12159 ft | 300 kts | 301° |
| 2026-05-05 13:14 | 55.53604 | -3.46110 | 11689 ft | 293 kts | 301° |
| 2026-05-05 13:14 | 55.54673 | -3.49131 | 11242 ft | 288 kts | 301° |
| 2026-05-05 13:14 | 55.55720 | -3.52116 | 10807 ft | 283 kts | 301° |
| 2026-05-05 13:15 | 55.56746 | -3.55061 | 10341 ft | 279 kts | 301° |
| 2026-05-05 13:15 | 55.57740 | -3.57930 | 9919 ft | 276 kts | 301° |
| 2026-05-05 13:15 | 55.58734 | -3.60808 | 9425 ft | 272 kts | 301° |
| 2026-05-05 13:15 | 55.59715 | -3.63654 | 8939 ft | 270 kts | 301° |
| 2026-05-05 13:16 | 55.60686 | -3.66486 | 8465 ft | 269 kts | 301° |
| 2026-05-05 13:16 | 55.61658 | -3.69311 | 8001 ft | 268 kts | 301° |
| 2026-05-05 13:16 | 55.62621 | -3.72130 | 7558 ft | 269 kts | 301° |
| 2026-05-05 13:16 | 55.63598 | -3.74985 | 7146 ft | 271 kts | 301° |
| 2026-05-05 13:17 | 55.64538 | -3.77808 | 7073 ft | 264 kts | 295° |
| 2026-05-05 13:17 | 55.64962 | -3.80962 | 7066 ft | 264 kts | 276° |
| 2026-05-05 13:17 | 55.65079 | -3.84236 | 7060 ft | 269 kts | 274° |
| 2026-05-05 13:17 | 55.65153 | -3.87550 | 7051 ft | 269 kts | 273° |
| 2026-05-05 13:18 | 55.65224 | -3.90877 | 6924 ft | 272 kts | 273° |
| 2026-05-05 13:18 | 55.65278 | -3.94221 | 6704 ft | 273 kts | 274° |
| 2026-05-05 13:18 | 55.65300 | -3.97594 | 6504 ft | 274 kts | 273° |
| 2026-05-05 13:18 | 55.65318 | -4.00959 | 6295 ft | 274 kts | 272° |
| 2026-05-05 13:19 | 55.65347 | -4.04263 | 6083 ft | 273 kts | 273° |
| 2026-05-05 13:19 | 55.65369 | -4.07620 | 5869 ft | 272 kts | 273° |
| 2026-05-05 13:19 | 55.65401 | -4.10971 | 5670 ft | 272 kts | 273° |
| 2026-05-05 13:19 | 55.65448 | -4.14316 | 5454 ft | 271 kts | 273° |
| 2026-05-05 13:20 | 55.65487 | -4.17653 | 5245 ft | 271 kts | 273° |
| 2026-05-05 13:20 | 55.65519 | -4.20998 | 5034 ft | 270 kts | 272° |
| 2026-05-05 13:20 | 55.65569 | -4.24315 | 4823 ft | 269 kts | 273° |
| 2026-05-05 13:20 | 55.65611 | -4.27627 | 4615 ft | 269 kts | 273° |
| 2026-05-05 13:21 | 55.65655 | -4.30929 | 4402 ft | 268 kts | 273° |
| 2026-05-05 13:21 | 55.65696 | -4.34236 | 4192 ft | 268 kts | 272° |
| 2026-05-05 13:21 | 55.65748 | -4.37527 | 3973 ft | 267 kts | 273° |
| 2026-05-05 13:21 | 55.65790 | -4.40821 | 3773 ft | 267 kts | 273° |
| 2026-05-05 13:22 | 55.65842 | -4.44102 | 3573 ft | 266 kts | 273° |
| 2026-05-05 13:22 | 55.65894 | -4.47301 | 3364 ft | 260 kts | 272° |
| 2026-05-05 13:22 | 55.65941 | -4.50442 | 3146 ft | 254 kts | 273° |
| 2026-05-05 13:22 | 55.65975 | -4.53521 | 2930 ft | 246 kts | 273° |
| 2026-05-05 13:23 | 55.66024 | -4.56501 | 2720 ft | 237 kts | 279° |
| 2026-05-05 13:23 | 55.66608 | -4.59127 | 2483 ft | 228 kts | 312° |
| 2026-05-05 13:23 | 55.67839 | -4.60676 | 2414 ft | 211 kts | 341° |
| 2026-05-05 13:23 | 55.69174 | -4.61562 | 2390 ft | 201 kts | 337° |
| 2026-05-05 13:24 | 55.70432 | -4.62568 | 2413 ft | 197 kts | 338° |
| 2026-05-05 13:24 | 55.71686 | -4.63541 | 2413 ft | 197 kts | 338° |
| 2026-05-05 13:24 | 55.72932 | -4.64490 | 2386 ft | 190 kts | 339° |
| 2026-05-05 13:24 | 55.74124 | -4.65366 | 2387 ft | 183 kts | 348° |
| 2026-05-05 13:25 | 55.75302 | -4.65014 | 2430 ft | 175 kts | 36° |
| 2026-05-05 13:25 | 55.76230 | -4.63558 | 2408 ft | 178 kts | 38° |
| 2026-05-05 13:25 | 55.77179 | -4.62168 | 2413 ft | 176 kts | 43° |
| 2026-05-05 13:25 | 55.78010 | -4.60574 | 2392 ft | 177 kts | 45° |
| 2026-05-05 13:26 | 55.78852 | -4.58967 | 2211 ft | 179 kts | 46° |
| 2026-05-05 13:26 | 55.79697 | -4.57383 | 1979 ft | 174 kts | 45° |
| 2026-05-05 13:26 | 55.80481 | -4.55908 | 1732 ft | 165 kts | 45° |
| 2026-05-05 13:26 | 55.81241 | -4.54480 | 1509 ft | 155 kts | 44° |
| 2026-05-05 13:27 | 55.81975 | -4.53108 | 1340 ft | 154 kts | 44° |
| 2026-05-05 13:27 | 55.82463 | -4.52189 | 1214 ft | 151 kts | 45° |
| 2026-05-05 13:27 | 55.83400 | -4.50434 | 921 ft | 145 kts | 51° |
| 2026-05-05 13:27 | 55.84062 | -4.49122 | 719 ft | 139 kts | 49° |
| 2026-05-05 13:28 | 55.84742 | -4.47930 | 552 ft | 137 kts | 46° |
| 2026-05-05 13:28 | 55.85405 | -4.46671 | 363 ft | 142 kts | 47° |
| 2026-05-05 13:28 | 55.85868 | -4.45814 | 206 ft | 140 kts | 49° |
| 2026-05-05 13:28 | 55.86526 | -4.44586 | 49 ft | 136 kts | 46° |
| 2026-05-05 13:29 | 55.87112 | -4.43486 | 28 ft | 102 kts | 47° |
| 2026-05-05 13:29 | 55.87454 | -4.42846 | 28 ft | 41 kts | 46° |
| 2026-05-05 13:29 | 55.87583 | -4.42605 | 28 ft | 25 kts | 46° |
| 2026-05-05 13:29 | 55.87704 | -4.42379 | 28 ft | 26 kts | 47° |
| 2026-05-05 13:30 | 55.87727 | -4.42191 | 28 ft | 19 kts | 134° |
| 2026-05-05 13:30 | 55.87685 | -4.42158 | 28 ft | 19 kts | 170° |
| 2026-05-05 13:30 | 55.87573 | -4.42247 | 28 ft | 18 kts | 227° |
| 2026-05-05 13:31 | 55.87487 | -4.42408 | 28 ft | 18 kts | 226° |
| 2026-05-05 13:31 | 55.87404 | -4.42562 | 28 ft | 17 kts | 223° |
| 2026-05-05 13:31 | 55.87301 | -4.42651 | 28 ft | 16 kts | 199° |
| 2026-05-05 13:31 | 55.87196 | -4.42720 | 28 ft | 16 kts | 202° |
| 2026-05-05 13:32 | 55.87093 | -4.42790 | 28 ft | 17 kts | 200° |
| 2026-05-05 13:32 | 55.86963 | -4.42881 | 28 ft | 23 kts | 207° |
| 2026-05-05 13:32 | 55.86846 | -4.43050 | 28 ft | 22 kts | 249° |
| 2026-05-05 13:32 | 55.86812 | -4.43255 | 28 ft | 21 kts | 253° |
| 2026-05-05 13:33 | 55.86781 | -4.43446 | 28 ft | 21 kts | 253° |
| 2026-05-05 13:34 | 55.86708 | -4.43608 | 28 ft | 17 kts | 173° |
| 2026-05-05 13:34 | 55.86596 | -4.43555 | 28 ft | 16 kts | 163° |
| 2026-05-05 13:34 | 55.86531 | -4.43593 | 28 ft | 10 kts | 249° |
| 2026-05-05 13:34 | 55.86517 | -4.43674 | 28 ft | 0 kts | 253° |